createdAt,value
2018-05-01T00:00:20.902Z,6.30
2018-05-01T00:02:49.826Z,6.30
2018-05-01T00:05:19.095Z,6.30
2018-05-01T00:07:47.906Z,6.30
2018-05-01T00:10:16.834Z,6.30
2018-05-01T00:12:46.039Z,6.30
2018-05-01T00:15:15.723Z,6.30
2018-05-01T00:17:44.656Z,6.30
2018-05-01T00:20:13.811Z,6.30
2018-05-01T00:22:42.665Z,6.40
2018-05-01T00:25:11.617Z,6.30
2018-05-01T00:27:40.455Z,6.40
2018-05-01T00:30:09.295Z,6.40
2018-05-01T00:32:38.212Z,6.40
2018-05-01T00:35:07.064Z,6.40
2018-05-01T00:37:35.909Z,6.40
2018-05-01T00:40:05.520Z,6.40
2018-05-01T00:42:34.294Z,6.40
2018-05-01T00:45:03.118Z,6.40
2018-05-01T00:47:32.770Z,6.50
2018-05-01T00:50:01.538Z,6.40
2018-05-01T00:52:41.938Z,6.50
2018-05-01T00:55:10.736Z,6.50
2018-05-01T00:57:39.510Z,6.50
2018-05-01T01:00:08.390Z,6.50
2018-05-01T01:02:37.163Z,6.50
2018-05-01T01:05:06.241Z,6.50
2018-05-01T01:07:36.190Z,6.60
2018-05-01T01:10:05.074Z,6.60
2018-05-01T01:12:34.611Z,6.60
2018-05-01T01:15:03.507Z,6.60
2018-05-01T01:17:32.381Z,6.60
2018-05-01T01:20:01.293Z,6.60
2018-05-01T01:22:30.230Z,6.70
2018-05-01T01:24:59.103Z,6.70
2018-05-01T01:27:29.607Z,6.70
2018-05-01T01:29:58.525Z,6.70
2018-05-01T01:32:27.811Z,6.70
2018-05-01T01:34:58.476Z,6.80
2018-05-01T01:37:27.535Z,6.80
2018-05-01T01:39:56.374Z,6.80
2018-05-01T01:42:25.208Z,6.80
2018-05-01T01:44:53.424Z,6.80
2018-05-01T01:47:21.652Z,6.80
2018-05-01T01:49:50.733Z,6.90
2018-05-01T01:52:18.891Z,6.90
2018-05-01T01:54:48.720Z,6.90
2018-05-01T01:57:17.014Z,6.90
2018-05-01T01:59:45.514Z,6.90
2018-05-01T02:02:14.488Z,6.90
2018-05-01T02:04:44.532Z,6.90
2018-05-01T02:07:13.549Z,6.90
2018-05-01T02:09:42.016Z,6.90
2018-05-01T02:12:11.066Z,6.80
2018-05-01T02:14:39.256Z,6.80
2018-05-01T02:17:07.901Z,6.80
2018-05-01T02:19:36.777Z,6.80
2018-05-01T02:22:05.847Z,6.90
2018-05-01T02:24:34.271Z,6.90
2018-05-01T02:27:02.541Z,6.90
2018-05-01T02:29:31.453Z,6.90
2018-05-01T02:32:00.356Z,6.90
2018-05-01T02:34:32.912Z,6.90
2018-05-01T02:37:01.841Z,6.90
2018-05-01T02:39:29.978Z,6.90
2018-05-01T02:41:58.516Z,6.90
2018-05-01T02:44:28.701Z,6.90
2018-05-01T02:46:58.410Z,6.90
2018-05-01T02:49:26.537Z,6.90
2018-05-01T02:51:54.674Z,6.90
2018-05-01T02:54:23.681Z,6.90
2018-05-01T02:56:52.865Z,7.00
2018-05-01T02:59:20.999Z,6.90
2018-05-01T03:01:49.427Z,6.90
2018-05-01T03:04:18.323Z,6.90
2018-05-01T03:06:47.114Z,6.90
2018-05-01T03:09:15.319Z,6.90
2018-05-01T03:11:43.450Z,7.00
2018-05-01T03:14:12.683Z,7.00
2018-05-01T03:16:41.654Z,7.00
2018-05-01T03:19:11.658Z,7.00
2018-05-01T03:21:39.870Z,7.00
2018-05-01T03:24:08.066Z,7.00
2018-05-01T03:26:36.971Z,7.00
2018-05-01T03:29:05.226Z,7.00
2018-05-01T03:31:33.430Z,7.10
2018-05-01T03:34:01.745Z,7.10
2018-05-01T03:36:31.981Z,7.10
2018-05-01T03:39:00.475Z,7.10
2018-05-01T03:41:30.012Z,7.10
2018-05-01T03:43:59.011Z,7.10
2018-05-01T03:46:29.954Z,7.10
2018-05-01T03:48:58.850Z,7.20
2018-05-01T03:51:28.662Z,7.10
2018-05-01T03:53:58.780Z,7.20
2018-05-01T03:56:26.905Z,7.10
2018-05-01T03:58:55.041Z,7.20
2018-05-01T04:01:24.070Z,7.20
2018-05-01T04:03:52.201Z,7.20
2018-05-01T04:06:20.329Z,7.20
2018-05-01T04:08:48.527Z,7.20
2018-05-01T04:11:16.667Z,7.20
2018-05-01T04:13:45.561Z,7.10
2018-05-01T04:16:14.643Z,7.10
2018-05-01T04:18:42.857Z,7.10
2018-05-01T04:21:11.307Z,7.20
2018-05-01T04:23:41.020Z,7.10
2018-05-01T04:26:09.141Z,7.20
2018-05-01T04:28:37.378Z,7.20
2018-05-01T04:31:07.414Z,7.20
2018-05-01T04:33:37.522Z,7.20
2018-05-01T04:36:06.149Z,7.20
2018-05-01T04:38:34.342Z,7.30
2018-05-01T04:41:04.414Z,7.30
2018-05-01T04:43:34.139Z,7.30
2018-05-01T04:46:05.271Z,7.30
2018-05-01T04:48:34.490Z,7.30
2018-05-01T04:51:03.438Z,7.20
2018-05-01T04:53:31.634Z,7.20
2018-05-01T04:55:59.768Z,7.20
2018-05-01T04:58:29.216Z,7.20
2018-05-01T05:00:58.847Z,7.20
2018-05-01T05:03:27.745Z,7.20
2018-05-01T05:05:57.006Z,7.20
2018-05-01T05:08:25.190Z,7.20
2018-05-01T05:10:54.428Z,7.20
2018-05-01T05:13:23.526Z,7.20
2018-05-01T05:15:54.777Z,7.20
2018-05-01T05:18:23.158Z,7.20
2018-05-01T05:20:53.248Z,7.20
2018-05-01T05:23:21.370Z,7.20
2018-05-01T05:25:50.341Z,7.30
2018-05-01T05:28:18.639Z,7.30
2018-05-01T05:30:47.086Z,7.40
2018-05-01T05:33:15.505Z,7.40
2018-05-01T05:35:43.718Z,7.40
2018-05-01T05:38:12.990Z,7.50
2018-05-01T05:40:41.904Z,7.50
2018-05-01T05:43:10.187Z,7.40
2018-05-01T05:45:38.548Z,7.50
2018-05-01T05:48:07.447Z,7.50
2018-05-01T05:50:36.434Z,7.60
2018-05-01T05:53:04.622Z,7.60
2018-05-01T05:55:33.208Z,7.60
2018-05-01T05:58:02.000Z,7.70
2018-05-01T06:00:30.990Z,7.70
2018-05-01T06:03:01.126Z,7.70
2018-05-01T06:05:30.224Z,7.90
2018-05-01T06:08:03.322Z,7.90
2018-05-01T06:10:32.009Z,7.90
2018-05-01T06:13:00.599Z,7.90
2018-05-01T06:15:33.582Z,8.00
2018-05-01T06:18:02.499Z,8.00
2018-05-01T06:20:30.740Z,8.00
2018-05-01T06:22:59.323Z,8.00
2018-05-01T06:25:27.539Z,8.00
2018-05-01T06:27:56.439Z,8.00
2018-05-01T06:30:24.644Z,8.00
2018-05-01T06:32:52.882Z,8.00
2018-05-01T06:35:22.902Z,8.10
2018-05-01T06:37:52.197Z,8.20
2018-05-01T06:40:20.584Z,8.10
2018-05-01T06:42:49.378Z,8.20
2018-05-01T06:45:18.353Z,8.30
2018-05-01T06:47:46.667Z,8.30
2018-05-01T06:50:15.038Z,8.30
2018-05-01T06:52:43.833Z,8.30
2018-05-01T06:55:13.042Z,8.30
2018-05-01T06:57:41.220Z,8.30
2018-05-01T07:00:10.517Z,8.40
2018-05-01T07:02:38.654Z,8.40
2018-05-01T07:05:09.254Z,8.50
2018-05-01T07:07:37.101Z,8.50
2018-05-01T07:10:04.474Z,8.70
2018-05-01T07:12:31.114Z,8.60
2018-05-01T07:14:57.890Z,8.80
2018-05-01T07:17:24.521Z,8.80
2018-05-01T07:19:56.357Z,8.80
2018-05-01T07:22:23.879Z,8.80
2018-05-01T07:24:50.682Z,8.80
2018-05-01T07:27:17.749Z,8.80
2018-05-01T07:29:44.747Z,8.80
2018-05-01T07:32:11.463Z,8.90
2018-05-01T07:34:38.189Z,8.90
2018-05-01T07:37:05.069Z,9.00
2018-05-01T07:39:31.722Z,9.00
2018-05-01T07:41:59.113Z,9.10
2018-05-01T07:44:26.567Z,9.20
2018-05-01T07:46:53.994Z,9.10
2018-05-01T07:49:20.694Z,9.10
2018-05-01T07:51:48.121Z,9.10
2018-05-01T07:54:14.818Z,9.10
2018-05-01T07:56:41.543Z,9.10
2018-05-01T07:59:09.185Z,9.20
2018-05-01T08:01:36.026Z,9.30
2018-05-01T08:04:02.783Z,9.30
2018-05-01T08:06:29.713Z,9.30
2018-05-01T08:08:57.101Z,9.40
2018-05-01T08:11:24.558Z,9.50
2018-05-01T08:13:51.333Z,9.50
2018-05-01T08:16:17.951Z,9.60
2018-05-01T08:18:45.670Z,9.70
2018-05-01T08:21:12.491Z,9.80
2018-05-01T08:23:39.146Z,9.80
2018-05-01T08:26:06.872Z,9.90
2018-05-01T08:28:33.578Z,10.00
2018-05-01T08:31:00.464Z,10.10
2018-05-01T08:33:27.194Z,10.20
2018-05-01T08:35:53.926Z,10.20
2018-05-01T08:38:20.543Z,10.20
2018-05-01T08:40:47.199Z,10.20
2018-05-01T08:43:13.911Z,10.20
2018-05-01T08:45:41.511Z,10.20
2018-05-01T08:48:08.151Z,10.20
2018-05-01T08:50:34.842Z,10.30
2018-05-01T08:53:01.621Z,10.40
2018-05-01T08:55:28.726Z,10.40
2018-05-01T08:57:55.452Z,10.40
2018-05-01T09:00:22.219Z,10.50
2018-05-01T09:02:48.871Z,10.60
2018-05-01T09:05:16.339Z,10.70
2018-05-01T09:07:42.963Z,10.70
2018-05-01T09:10:09.614Z,10.90
2018-05-01T09:12:37.130Z,11.00
2018-05-01T09:15:03.800Z,11.00
2018-05-01T09:17:30.522Z,11.10
2018-05-01T09:19:57.215Z,11.20
2018-05-01T09:22:23.920Z,11.20
2018-05-01T09:24:50.702Z,11.30
2018-05-01T09:27:17.511Z,11.40
2018-05-01T09:29:44.147Z,11.50
2018-05-01T09:32:10.766Z,11.60
2018-05-01T09:34:38.231Z,11.80
2018-05-01T09:37:05.686Z,11.90
2018-05-01T09:39:32.458Z,11.90
2018-05-01T09:41:59.244Z,12.00
2018-05-01T09:44:26.655Z,12.00
2018-05-01T09:46:54.084Z,12.10
2018-05-01T09:49:20.774Z,12.10
2018-05-01T09:51:47.846Z,12.10
2018-05-01T09:54:14.873Z,12.20
2018-05-01T09:56:42.755Z,12.40
2018-05-01T09:59:09.797Z,12.30
2018-05-01T10:01:37.577Z,12.50
2018-05-01T10:04:05.048Z,12.50
2018-05-01T10:06:32.086Z,12.70
2018-05-01T10:08:59.395Z,12.80
2018-05-01T10:11:27.514Z,13.00
2018-05-01T10:13:55.372Z,13.00
2018-05-01T10:16:23.288Z,13.00
2018-05-01T10:18:50.590Z,13.00
2018-05-01T10:21:18.877Z,12.90
2018-05-01T10:23:46.063Z,12.80
2018-05-01T10:26:13.394Z,12.80
2018-05-01T10:28:40.687Z,12.90
2018-05-01T10:31:07.985Z,12.90
2018-05-01T10:33:35.326Z,13.00
2018-05-01T10:36:03.560Z,13.00
2018-05-01T10:38:31.846Z,12.70
2018-05-01T10:40:59.300Z,12.80
2018-05-01T10:43:27.254Z,12.90
2018-05-01T10:45:54.731Z,12.80
2018-05-01T10:48:23.372Z,13.00
2018-05-01T10:50:50.625Z,13.00
2018-05-01T10:53:18.061Z,13.00
2018-05-01T10:55:46.091Z,13.00
2018-05-01T10:58:13.383Z,13.10
2018-05-01T11:00:41.730Z,13.30
2018-05-01T11:03:08.880Z,13.30
2018-05-01T11:05:36.915Z,13.30
2018-05-01T11:08:04.087Z,13.30
2018-05-01T11:13:03.719Z,13.50
2018-05-01T11:15:32.538Z,13.50
2018-05-01T11:18:01.813Z,13.50
2018-05-01T11:20:30.684Z,13.60
2018-05-01T11:22:59.538Z,13.70
2018-05-01T11:25:28.714Z,13.80
2018-05-01T11:27:57.587Z,13.90
2018-05-01T11:30:27.185Z,14.10
2018-05-01T11:32:56.801Z,14.30
2018-05-01T11:35:26.442Z,14.40
2018-05-01T11:37:55.445Z,14.40
2018-05-01T11:40:24.317Z,14.50
2018-05-01T11:42:54.056Z,14.70
2018-05-01T11:45:22.966Z,14.70
2018-05-01T11:47:52.650Z,14.70
2018-05-01T11:50:21.701Z,14.80
2018-05-01T11:52:50.532Z,14.90
2018-05-01T11:55:20.114Z,15.20
2018-05-01T11:57:49.022Z,15.20
2018-05-01T12:00:17.908Z,15.30
2018-05-01T12:02:46.804Z,15.40
2018-05-01T12:05:16.458Z,15.70
2018-05-01T12:07:46.340Z,15.70
2018-05-01T12:10:16.278Z,16.10
2018-05-01T12:12:45.181Z,16.10
2018-05-01T12:15:14.029Z,16.20
2018-05-01T12:17:43.934Z,16.30
2018-05-01T12:20:12.763Z,16.40
2018-05-01T12:22:42.453Z,16.50
2018-05-01T12:25:11.302Z,16.50
2018-05-01T12:27:40.159Z,16.60
2018-05-01T12:30:10.299Z,16.80
2018-05-01T12:32:39.900Z,16.80
2018-05-01T12:35:09.544Z,16.80
2018-05-01T12:37:38.369Z,16.80
2018-05-01T12:40:08.615Z,17.00
2018-05-01T12:42:37.561Z,17.00
2018-05-01T12:45:06.378Z,16.90
2018-05-01T12:47:35.156Z,16.70
2018-05-01T12:50:04.146Z,16.60
2018-05-01T12:52:33.054Z,16.50
2018-05-01T12:55:01.899Z,16.60
2018-05-01T12:57:31.572Z,16.90
2018-05-01T13:00:00.466Z,16.90
2018-05-01T13:02:29.306Z,17.10
2018-05-01T13:04:58.906Z,17.60
2018-05-01T13:07:28.158Z,17.50
2018-05-01T13:09:56.942Z,17.70
2018-05-01T13:12:25.796Z,17.90
2018-05-01T13:14:55.421Z,17.60
2018-05-01T13:17:24.985Z,17.60
2018-05-01T13:19:54.978Z,17.70
2018-05-01T13:22:23.929Z,17.70
2018-05-01T13:24:52.784Z,18.10
2018-05-01T13:27:21.709Z,18.50
2018-05-01T13:29:51.135Z,18.80
2018-05-01T13:32:21.016Z,19.10
2018-05-01T13:34:51.186Z,19.10
2018-05-01T13:37:20.850Z,19.20
2018-05-01T13:39:50.017Z,19.10
2018-05-01T13:42:19.508Z,19.10
2018-05-01T13:44:48.388Z,18.90
2018-05-01T13:47:17.613Z,18.50
2018-05-01T13:49:46.963Z,18.20
2018-05-01T13:52:16.497Z,17.60
2018-05-01T13:54:47.046Z,17.30
2018-05-01T13:57:16.615Z,16.60
2018-05-01T13:59:45.410Z,16.60
2018-05-01T14:02:14.347Z,16.20
2018-05-01T14:04:43.839Z,16.10
2018-05-01T14:07:12.907Z,16.00
2018-05-01T14:09:42.690Z,16.10
2018-05-01T14:12:11.845Z,16.30
2018-05-01T14:14:40.646Z,16.30
2018-05-01T14:17:09.490Z,16.40
2018-05-01T14:19:38.339Z,16.50
2018-05-01T14:22:07.442Z,16.40
2018-05-01T14:24:36.767Z,16.30
2018-05-01T14:27:06.879Z,16.10
2018-05-01T14:29:36.219Z,15.80
2018-05-01T14:32:05.353Z,15.80
2018-05-01T14:34:34.248Z,15.80
2018-05-01T14:37:03.216Z,15.80
2018-05-01T14:39:32.134Z,15.80
2018-05-01T14:42:01.451Z,15.70
2018-05-01T14:44:31.548Z,15.50
2018-05-01T14:47:01.956Z,15.50
2018-05-01T14:49:30.805Z,15.40
2018-05-01T14:51:59.732Z,15.40
2018-05-01T14:54:29.320Z,15.30
2018-05-01T14:56:58.258Z,15.30
2018-05-01T14:59:27.282Z,15.30
2018-05-01T15:01:56.540Z,15.30
2018-05-01T15:04:25.364Z,15.10
2018-05-01T15:06:55.052Z,15.10
2018-05-01T15:09:23.917Z,15.00
2018-05-01T15:11:52.771Z,14.80
2018-05-01T15:14:21.702Z,14.80
2018-05-01T15:16:51.311Z,14.80
2018-05-01T15:19:20.277Z,14.80
2018-05-01T15:21:49.202Z,14.70
2018-05-01T15:24:18.529Z,14.80
2018-05-01T15:26:48.113Z,14.80
2018-05-01T15:29:17.399Z,14.80
2018-05-01T15:31:46.277Z,14.90
2018-05-01T15:34:15.166Z,14.90
2018-05-01T15:36:44.103Z,15.00
2018-05-01T15:39:12.935Z,15.00
2018-05-01T15:41:41.827Z,14.90
2018-05-01T15:44:11.554Z,15.20
2018-05-01T15:46:41.471Z,15.20
2018-05-01T15:49:10.318Z,15.20
2018-05-01T15:51:39.590Z,15.20
2018-05-01T15:54:08.552Z,15.10
2018-05-01T15:56:39.009Z,15.00
2018-05-01T15:59:07.930Z,15.00
2018-05-01T16:01:37.258Z,14.90
2018-05-01T16:04:06.384Z,14.80
2018-05-01T16:06:36.176Z,14.60
2018-05-01T16:09:05.806Z,14.60
2018-05-01T16:11:35.556Z,14.50
2018-05-01T16:14:05.578Z,14.50
2018-05-01T16:16:34.401Z,14.50
2018-05-01T16:19:03.698Z,14.40
2018-05-01T16:21:32.905Z,14.40
2018-05-01T16:24:01.817Z,14.30
2018-05-01T16:26:30.743Z,14.30
2018-05-01T16:28:59.571Z,14.20
2018-05-01T16:31:28.397Z,14.10
2018-05-01T16:33:57.596Z,14.10
2018-05-01T16:36:26.395Z,14.00
2018-05-01T16:38:55.187Z,13.90
2018-05-01T16:41:24.051Z,14.00
2018-05-01T16:43:52.833Z,13.90
2018-05-01T16:46:21.638Z,13.80
2018-05-01T16:48:50.535Z,13.80
2018-05-01T16:51:19.319Z,13.70
2018-05-01T16:53:48.107Z,13.70
2018-05-01T16:56:16.953Z,13.60
2018-05-01T16:58:46.543Z,13.60
2018-05-01T17:01:15.310Z,13.50
2018-05-01T17:03:44.228Z,13.50
2018-05-01T17:06:13.072Z,13.50
2018-05-01T17:08:42.186Z,13.40
2018-05-01T17:11:11.210Z,13.40
2018-05-01T17:13:40.095Z,13.40
2018-05-01T17:16:08.894Z,13.40
2018-05-01T17:18:39.099Z,13.40
2018-05-01T17:21:07.911Z,13.30
2018-05-01T17:23:36.686Z,13.20
2018-05-01T17:26:05.553Z,13.20
2018-05-01T17:28:34.842Z,13.20
2018-05-01T17:31:04.026Z,13.10
2018-05-01T17:33:33.386Z,13.10
2018-05-01T17:36:02.194Z,13.00
2018-05-01T17:38:30.997Z,12.80
2018-05-01T17:40:59.876Z,12.80
2018-05-01T17:43:28.648Z,12.70
2018-05-01T17:45:57.445Z,12.50
2018-05-01T17:48:26.283Z,12.50
2018-05-01T17:50:56.443Z,12.40
2018-05-01T17:53:26.041Z,12.30
2018-05-01T17:55:55.341Z,12.20
2018-05-01T17:58:24.634Z,12.10
2018-05-01T18:00:53.556Z,12.10
2018-05-01T18:03:23.097Z,11.90
2018-05-01T18:05:52.119Z,11.90
2018-05-01T18:08:21.698Z,11.80
2018-05-01T18:10:50.503Z,11.80
2018-05-01T18:13:20.506Z,11.80
2018-05-01T18:15:50.456Z,11.70
2018-05-01T18:18:19.337Z,11.70
2018-05-01T18:20:48.221Z,11.70
2018-05-01T18:23:17.054Z,11.70
2018-05-01T18:25:45.910Z,11.60
2018-05-01T18:28:14.818Z,11.50
2018-05-01T18:30:44.649Z,11.50
2018-05-01T18:33:14.808Z,11.50
2018-05-01T18:35:44.446Z,11.40
2018-05-01T18:38:13.224Z,11.40
2018-05-01T18:40:42.866Z,11.40
2018-05-01T18:43:11.759Z,11.30
2018-05-01T18:45:40.580Z,11.30
2018-05-01T18:48:09.516Z,11.30
2018-05-01T18:50:40.393Z,11.20
2018-05-01T18:53:08.714Z,11.20
2018-05-01T18:55:37.739Z,11.20
2018-05-01T18:58:07.319Z,11.10
2018-05-01T19:00:36.129Z,11.20
2018-05-01T19:03:04.997Z,11.10
2018-05-01T19:05:33.833Z,11.10
2018-05-01T19:08:03.506Z,11.00
2018-05-01T19:10:32.953Z,11.00
2018-05-01T19:13:02.595Z,11.00
2018-05-01T19:15:32.600Z,10.90
2018-05-01T19:18:01.480Z,10.90
2018-05-01T19:20:31.055Z,10.80
2018-05-01T19:23:00.419Z,10.80
2018-05-01T19:25:29.602Z,10.70
2018-05-01T19:27:59.169Z,10.70
2018-05-01T19:30:28.430Z,10.70
2018-05-01T19:32:57.596Z,10.60
2018-05-01T19:35:27.265Z,10.60
2018-05-01T19:37:56.222Z,10.50
2018-05-01T19:40:25.826Z,10.50
2018-05-01T19:42:54.974Z,10.50
2018-05-01T19:45:24.026Z,10.50
2018-05-01T19:47:53.654Z,10.40
2018-05-01T19:50:23.291Z,10.40
2018-05-01T19:52:52.196Z,10.40
2018-05-01T19:55:21.025Z,10.30
2018-05-01T19:57:50.040Z,10.30
2018-05-01T20:00:20.080Z,10.20
2018-05-01T20:02:48.890Z,10.20
2018-05-01T20:05:17.796Z,10.10
2018-05-01T20:07:46.642Z,10.10
2018-05-01T20:10:15.717Z,10.10
2018-05-01T20:12:44.587Z,10.10
2018-05-01T20:15:13.398Z,10.10
2018-05-01T20:17:42.203Z,10.00
2018-05-01T20:20:11.376Z,10.00
2018-05-01T20:22:40.231Z,10.00
2018-05-01T20:25:09.007Z,9.90
2018-05-01T20:27:38.309Z,9.80
2018-05-01T20:30:07.172Z,9.80
2018-05-01T20:32:35.945Z,9.70
2018-05-01T20:35:04.819Z,9.60
2018-05-01T20:37:33.580Z,9.60
2018-05-01T20:40:03.416Z,9.50
2018-05-01T20:42:33.032Z,9.40
2018-05-01T20:45:02.565Z,9.40
2018-05-01T20:47:31.367Z,9.40
2018-05-01T20:50:00.198Z,9.40
2018-05-01T20:52:29.412Z,9.40
2018-05-01T20:54:58.175Z,9.30
2018-05-01T20:57:27.066Z,9.30
2018-05-01T20:59:55.830Z,9.30
2018-05-01T21:02:24.592Z,9.30
2018-05-01T21:04:54.271Z,9.20
2018-05-01T21:07:23.040Z,9.20
2018-05-01T21:09:51.879Z,9.10
2018-05-01T21:12:20.706Z,9.10
2018-05-01T21:14:50.754Z,9.10
2018-05-01T21:17:19.521Z,9.10
2018-05-01T21:19:48.726Z,9.00
2018-05-01T21:22:17.625Z,9.00
2018-05-01T21:24:46.369Z,9.00
2018-05-01T21:27:15.689Z,8.90
2018-05-01T21:29:45.330Z,8.90
2018-05-01T21:32:14.149Z,8.80
2018-05-01T21:34:42.916Z,8.80
2018-05-01T21:37:11.766Z,8.70
2018-05-01T21:39:40.542Z,8.60
2018-05-01T21:42:09.318Z,8.60
2018-05-01T21:44:38.232Z,8.60
2018-05-01T21:47:07.009Z,8.50
2018-05-01T21:49:36.263Z,8.40
2018-05-01T21:52:05.939Z,8.40
2018-05-01T21:54:34.695Z,8.40
2018-05-01T21:57:03.475Z,8.40
2018-05-01T21:59:32.302Z,8.30
2018-05-01T22:02:01.080Z,8.30
2018-05-01T22:04:29.863Z,8.30
2018-05-01T22:06:58.689Z,8.20
2018-05-01T22:09:27.455Z,8.20
2018-05-01T22:11:56.248Z,8.20
2018-05-01T22:14:25.126Z,8.20
2018-05-01T22:16:53.928Z,8.20
2018-05-01T22:19:22.746Z,8.20
2018-05-01T22:21:52.376Z,8.10
2018-05-01T22:24:21.186Z,8.10
2018-05-01T22:26:49.966Z,8.10
2018-05-01T22:29:19.183Z,8.00
2018-05-01T22:31:47.956Z,8.00
2018-05-01T22:34:16.759Z,7.90
2018-05-01T22:36:46.375Z,7.80
2018-05-01T22:39:15.138Z,7.80
2018-05-01T22:41:43.906Z,7.80
2018-05-01T22:44:12.802Z,7.80
2018-05-01T22:46:41.558Z,7.80
2018-05-01T22:49:11.085Z,7.80
2018-05-01T22:51:39.969Z,7.70
2018-05-01T22:54:09.543Z,7.70
2018-05-01T22:56:38.336Z,7.70
2018-05-01T22:59:07.220Z,7.70
2018-05-01T23:01:36.422Z,7.70
2018-05-01T23:04:05.220Z,7.60
2018-05-01T23:06:34.300Z,7.60
2018-05-01T23:09:03.137Z,7.60
2018-05-01T23:11:31.918Z,7.60
2018-05-01T23:14:00.791Z,7.60
2018-05-01T23:16:29.560Z,7.50
2018-05-01T23:18:58.363Z,7.50
2018-05-01T23:21:27.219Z,7.60
2018-05-01T23:23:56.358Z,7.50
2018-05-01T23:26:25.122Z,7.60
2018-05-01T23:28:54.744Z,7.60
2018-05-01T23:31:23.505Z,7.50
2018-05-01T23:33:53.063Z,7.60
2018-05-01T23:36:21.930Z,7.60
2018-05-01T23:38:51.467Z,7.60
2018-05-01T23:41:20.235Z,7.60
2018-05-01T23:43:49.097Z,7.60
2018-05-01T23:46:17.865Z,7.60
2018-05-01T23:48:46.621Z,7.60
2018-05-01T23:51:15.782Z,7.60
2018-05-01T23:53:44.930Z,7.60
2018-05-01T23:56:13.707Z,7.60
2018-05-01T23:58:43.012Z,7.60
